EGAC/BHD METAR and TAF weather

Enter ICAO airport designator
Station Type Date Time Source
EGAC METAR 2019/12/14 19:20 UTC NOAA

EGAC 141920Z AUTO 21014KT 9999 NCD 03/M00 Q0981


Station Type Date Time Source
EGAC Decoded METAR 2019/12/14 19:20 UTC NOAA

Belfast / Harbour, United Kingdom (EGAC) 54-36N 005-53W 0M
Dec 14, 2019 - 02:20 PM EST / 2019.12.14 1920 UTC
Wind: from the SSW (210 degrees) at 16 MPH (14 KT):0
Visibility: greater than 7 mile(s):0
Temperature: 37 F (3 C)
Dew Point: 32 F (0 C)
Relative Humidity: 80%
Pressure (altimeter): 28.97 in. Hg (0981 hPa)
ob: EGAC 141920Z AUTO 21014KT 9999 NCD 03/M00 Q0981
cycle: 19

Station Type Date Time Source
EGAC TAF UTC NOAA

Error!

Example: see airport list